createdAt,value
2023-03-06T00:00:53.055Z,399.00
2023-03-06T00:04:53.180Z,396.00
2023-03-06T00:08:53.273Z,397.00
2023-03-06T00:12:53.407Z,398.00
2023-03-06T00:16:53.472Z,400.00
2023-03-06T00:20:53.606Z,404.00
2023-03-06T00:24:53.717Z,403.00
2023-03-06T00:28:53.836Z,403.00
2023-03-06T00:32:53.961Z,403.00
2023-03-06T00:36:54.057Z,405.00
2023-03-06T00:40:54.126Z,405.00
2023-03-06T00:44:54.227Z,399.00
2023-03-06T00:48:54.321Z,400.00
2023-03-06T00:52:54.497Z,406.00
2023-03-06T00:56:54.473Z,409.00
2023-03-06T01:00:54.627Z,406.00
2023-03-06T01:04:54.637Z,400.00
2023-03-06T01:08:54.712Z,409.00
2023-03-06T01:12:54.808Z,407.00
2023-03-06T01:16:54.912Z,399.00
2023-03-06T01:20:55.085Z,397.00
2023-03-06T01:24:55.094Z,403.00
2023-03-06T01:28:55.233Z,409.00
2023-03-06T01:32:55.318Z,408.00
2023-03-06T01:36:55.408Z,406.00
2023-03-06T01:40:55.512Z,409.00
2023-03-06T01:44:55.614Z,406.00
2023-03-06T01:48:55.697Z,401.00
2023-03-06T01:52:55.832Z,405.00
2023-03-06T01:56:55.936Z,401.00
2023-03-06T02:00:56.193Z,401.00
2023-03-06T02:04:56.192Z,400.00
2023-03-06T02:08:56.310Z,399.00
2023-03-06T02:12:56.361Z,401.00
2023-03-06T02:16:56.578Z,403.00
2023-03-06T02:20:56.586Z,408.00
2023-03-06T02:24:56.705Z,404.00
2023-03-06T02:28:56.747Z,407.00
2023-03-06T02:32:56.879Z,404.00
2023-03-06T02:36:56.994Z,406.00
2023-03-06T02:40:57.092Z,407.00
2023-03-06T02:44:57.187Z,406.00
2023-03-06T02:48:57.322Z,408.00
2023-03-06T02:52:57.360Z,409.00
2023-03-06T02:56:57.495Z,408.00
2023-03-06T03:00:57.605Z,408.00
2023-03-06T03:04:57.710Z,405.00
2023-03-06T03:08:57.790Z,410.00
2023-03-06T03:12:57.916Z,409.00
2023-03-06T03:16:58.040Z,408.00
2023-03-06T03:20:58.153Z,407.00
2023-03-06T03:24:58.261Z,404.00
2023-03-06T03:28:58.337Z,400.00
2023-03-06T03:32:58.474Z,401.00
2023-03-06T03:36:58.553Z,400.00
2023-03-06T03:40:58.675Z,405.00
2023-03-06T03:44:58.852Z,407.00
2023-03-06T03:48:58.883Z,407.00
2023-03-06T03:52:59.017Z,399.00
2023-03-06T03:56:59.160Z,398.00
2023-03-06T04:00:59.243Z,398.00
2023-03-06T04:04:59.436Z,401.00
2023-03-06T04:08:59.507Z,398.00
2023-03-06T04:12:59.624Z,404.00
2023-03-06T04:16:59.795Z,403.00
2023-03-06T04:20:59.820Z,404.00
2023-03-06T04:24:59.893Z,401.00
2023-03-06T04:28:59.894Z,401.00
2023-03-06T04:32:59.906Z,404.00
2023-03-06T04:36:59.951Z,405.00
2023-03-06T04:40:59.919Z,408.00
2023-03-06T04:44:59.913Z,407.00
2023-03-06T04:48:59.879Z,408.00
2023-03-06T04:52:59.901Z,404.00
2023-03-06T04:56:59.873Z,405.00
2023-03-06T05:00:59.871Z,405.00
2023-03-06T05:04:59.852Z,405.00
2023-03-06T05:08:59.787Z,408.00
2023-03-06T05:12:59.819Z,406.00
2023-03-06T05:16:59.869Z,406.00
2023-03-06T05:20:59.915Z,405.00
2023-03-06T05:24:59.881Z,398.00
2023-03-06T05:28:59.965Z,399.00
2023-03-06T05:33:00.001Z,403.00
2023-03-06T05:37:00.042Z,406.00
2023-03-06T05:41:00.069Z,406.00
2023-03-06T05:45:00.153Z,404.00
2023-03-06T05:49:00.206Z,406.00
2023-03-06T05:53:00.236Z,405.00
2023-03-06T05:57:00.230Z,403.00
2023-03-06T06:01:00.302Z,406.00
2023-03-06T06:05:00.376Z,410.00
2023-03-06T06:09:00.436Z,407.00
2023-03-06T06:13:00.524Z,411.00
2023-03-06T06:17:00.644Z,406.00
2023-03-06T06:21:00.683Z,407.00
2023-03-06T06:25:00.767Z,407.00
2023-03-06T06:29:00.859Z,407.00
2023-03-06T06:33:00.998Z,407.00
2023-03-06T06:37:01.090Z,406.00
2023-03-06T06:41:31.094Z,406.00
2023-03-06T06:45:02.168Z,404.00
2023-03-06T06:49:01.585Z,404.00
2023-03-06T06:53:01.163Z,407.00
2023-03-06T06:57:01.557Z,403.00
2023-03-06T07:01:01.343Z,410.00
2023-03-06T07:05:05.123Z,403.00
2023-03-06T07:09:01.530Z,402.00
2023-03-06T07:13:01.429Z,409.00
2023-03-06T07:17:01.388Z,406.00
2023-03-06T07:21:01.528Z,403.00
2023-03-06T07:25:01.265Z,403.00
2023-03-06T07:29:01.586Z,403.00
2023-03-06T07:33:01.201Z,401.00
2023-03-06T07:37:01.580Z,402.00
2023-03-06T07:41:01.156Z,398.00
2023-03-06T07:45:01.553Z,400.00
2023-03-06T07:49:01.210Z,403.00
2023-03-06T07:53:01.350Z,400.00
2023-03-06T07:57:01.573Z,395.00
2023-03-06T08:01:01.480Z,402.00
2023-03-06T08:05:01.555Z,402.00
2023-03-06T08:09:01.701Z,406.00
2023-03-06T08:13:02.146Z,402.00
2023-03-06T08:17:01.945Z,405.00
2023-03-06T08:21:02.076Z,408.00
2023-03-06T08:25:02.629Z,419.00
2023-03-06T08:29:02.369Z,423.00
2023-03-06T08:33:02.562Z,422.00
2023-03-06T08:37:02.699Z,424.00
2023-03-06T08:41:03.080Z,431.00
2023-03-06T08:45:03.088Z,427.00
2023-03-06T08:49:03.110Z,511.00
2023-03-06T08:53:02.980Z,552.00
2023-03-06T08:57:03.186Z,749.00
2023-03-06T09:01:03.749Z,846.00
2023-03-06T09:05:03.526Z,896.00
2023-03-06T09:09:03.567Z,1025.00
2023-03-06T09:13:03.632Z,1065.00
2023-03-06T09:17:03.648Z,1179.00
2023-03-06T09:21:04.081Z,1264.00
2023-03-06T09:25:03.631Z,1365.00
2023-03-06T09:29:03.608Z,1439.00
2023-03-06T09:33:03.605Z,1556.00
2023-03-06T09:37:04.129Z,1585.00
2023-03-06T09:41:03.711Z,1572.00
2023-03-06T09:45:04.113Z,1526.00
2023-03-06T09:49:04.101Z,1501.00
2023-03-06T09:53:04.052Z,1495.00
2023-03-06T09:57:04.625Z,1572.00
2023-03-06T10:01:04.240Z,1698.00
2023-03-06T10:05:04.331Z,1774.00
2023-03-06T10:09:04.603Z,1830.00
2023-03-06T10:13:04.193Z,1910.00
2023-03-06T10:17:04.209Z,1994.00
2023-03-06T10:21:17.277Z,1993.00
2023-03-06T10:25:05.201Z,1775.00
2023-03-06T10:29:04.608Z,1521.00
2023-03-06T10:33:04.604Z,1485.00
2023-03-06T10:37:05.129Z,1385.00
2023-03-06T10:41:05.128Z,942.00
2023-03-06T10:45:05.130Z,810.00
2023-03-06T10:49:05.638Z,820.00
2023-03-06T10:53:05.426Z,826.00
2023-03-06T10:57:05.521Z,906.00
2023-03-06T11:01:05.654Z,915.00
2023-03-06T11:05:05.552Z,917.00
2023-03-06T11:09:05.561Z,906.00
2023-03-06T11:13:05.591Z,895.00
2023-03-06T11:17:05.604Z,911.00
2023-03-06T11:21:05.632Z,919.00
2023-03-06T11:25:05.642Z,959.00
2023-03-06T11:29:05.704Z,955.00
2023-03-06T11:33:05.632Z,953.00
2023-03-06T11:37:06.131Z,877.00
2023-03-06T11:41:05.758Z,821.00
2023-03-06T11:45:06.125Z,854.00
2023-03-06T11:49:05.990Z,900.00
2023-03-06T11:53:05.993Z,951.00
2023-03-06T11:57:06.025Z,1007.00
2023-03-06T12:01:06.657Z,1105.00
2023-03-06T12:05:06.482Z,1192.00
2023-03-06T12:09:06.628Z,1271.00
2023-03-06T12:13:06.730Z,1350.00
2023-03-06T12:17:06.867Z,1451.00
2023-03-06T12:21:06.912Z,1597.00
2023-03-06T12:25:07.011Z,1672.00
2023-03-06T12:29:07.161Z,1673.00
2023-03-06T12:33:07.095Z,1671.00
2023-03-06T12:37:07.183Z,1699.00
2023-03-06T12:41:07.681Z,1652.00
2023-03-06T12:45:07.330Z,1628.00
2023-03-06T12:49:07.536Z,1570.00
2023-03-06T12:53:07.767Z,1549.00
2023-03-06T12:57:07.971Z,1569.00
2023-03-06T13:01:08.214Z,1569.00
2023-03-06T13:05:08.411Z,1571.00
2023-03-06T13:09:08.411Z,1565.00
2023-03-06T13:13:08.580Z,1555.00
2023-03-06T13:17:08.802Z,1550.00
2023-03-06T13:21:08.871Z,1546.00
2023-03-06T13:25:09.235Z,1544.00
2023-03-06T13:29:09.154Z,1541.00
2023-03-06T13:33:09.371Z,1541.00
2023-03-06T13:37:09.906Z,1534.00
2023-03-06T13:41:09.624Z,1529.00
2023-03-06T13:45:09.792Z,1525.00
2023-03-06T13:49:09.931Z,1516.00
2023-03-06T13:53:10.122Z,1501.00
2023-03-06T13:57:10.297Z,1496.00
2023-03-06T14:01:10.494Z,1490.00
2023-03-06T14:05:10.651Z,1490.00
2023-03-06T14:09:10.836Z,1474.00
2023-03-06T14:13:11.025Z,1463.00
2023-03-06T14:17:11.200Z,1462.00
2023-03-06T14:21:11.362Z,1453.00
2023-03-06T14:25:11.530Z,1442.00
2023-03-06T14:29:11.686Z,1440.00
2023-03-06T14:33:11.864Z,1432.00
2023-03-06T14:37:12.079Z,1421.00
2023-03-06T14:41:13.881Z,1406.00
2023-03-06T14:45:12.380Z,1411.00
2023-03-06T14:49:12.553Z,1405.00
2023-03-06T14:53:12.683Z,1398.00
2023-03-06T14:57:12.855Z,1381.00
2023-03-06T15:01:12.985Z,1371.00
2023-03-06T15:05:13.205Z,1362.00
2023-03-06T15:09:13.349Z,1366.00
2023-03-06T15:13:13.436Z,1367.00
2023-03-06T15:17:13.702Z,1358.00
2023-03-06T15:21:13.489Z,1341.00
2023-03-06T15:25:13.563Z,1336.00
2023-03-06T15:29:13.592Z,1328.00
2023-03-06T15:33:13.708Z,1318.00
2023-03-06T15:37:14.201Z,1306.00
2023-03-06T15:41:13.784Z,1303.00
2023-03-06T15:45:13.899Z,1294.00
2023-03-06T15:49:13.804Z,1291.00
2023-03-06T15:53:13.942Z,1281.00
2023-03-06T15:57:14.018Z,1264.00
2023-03-06T16:01:14.226Z,1265.00
2023-03-06T16:05:14.297Z,1259.00
2023-03-06T16:09:14.419Z,1249.00
2023-03-06T16:13:14.756Z,1241.00
2023-03-06T16:17:14.831Z,1233.00
2023-03-06T16:21:14.953Z,1221.00
2023-03-06T16:25:15.154Z,1214.00
2023-03-06T16:29:15.523Z,1206.00
2023-03-06T16:33:15.714Z,1206.00
2023-03-06T16:37:15.796Z,1197.00
2023-03-06T16:41:15.910Z,1187.00
2023-03-06T16:45:16.131Z,1181.00
2023-03-06T16:49:16.322Z,1180.00
2023-03-06T16:53:16.872Z,1171.00
2023-03-06T16:57:16.781Z,1167.00
2023-03-06T17:01:16.816Z,1159.00
2023-03-06T17:05:16.966Z,1153.00
2023-03-06T17:09:17.255Z,1153.00
2023-03-06T17:13:17.333Z,1142.00
2023-03-06T17:17:17.616Z,1136.00
2023-03-06T17:21:17.739Z,1127.00
2023-03-06T17:25:17.895Z,1121.00
2023-03-06T17:29:18.076Z,1118.00
2023-03-06T17:33:18.292Z,1109.00
2023-03-06T17:37:18.659Z,1102.00
2023-03-06T17:41:18.784Z,1103.00
2023-03-06T17:45:18.976Z,1097.00
2023-03-06T17:49:19.119Z,1090.00
2023-03-06T17:53:19.123Z,1082.00
2023-03-06T17:57:19.079Z,1077.00
2023-03-06T18:01:19.345Z,1074.00
2023-03-06T18:05:19.032Z,1073.00
2023-03-06T18:09:18.968Z,1059.00
2023-03-06T18:13:19.001Z,1059.00
2023-03-06T18:17:18.926Z,1060.00
2023-03-06T18:21:19.123Z,1055.00
2023-03-06T18:25:19.030Z,1046.00
2023-03-06T18:29:18.795Z,1039.00
2023-03-06T18:33:18.987Z,1041.00
2023-03-06T18:37:19.067Z,1034.00
2023-03-06T18:41:18.949Z,1024.00
2023-03-06T18:45:18.905Z,1025.00
2023-03-06T18:49:18.927Z,1024.00
2023-03-06T18:53:18.870Z,1017.00
2023-03-06T18:57:18.870Z,1009.00
2023-03-06T19:01:18.918Z,999.00
2023-03-06T19:05:18.750Z,995.00
2023-03-06T19:09:18.897Z,994.00
2023-03-06T19:13:18.957Z,993.00
2023-03-06T19:17:18.930Z,988.00
2023-03-06T19:21:18.856Z,976.00
2023-03-06T19:25:18.834Z,973.00
2023-03-06T19:29:19.044Z,970.00
2023-03-06T19:33:27.814Z,968.00
2023-03-06T19:37:18.737Z,966.00
2023-03-06T19:41:18.665Z,965.00
2023-03-06T19:45:18.641Z,958.00
2023-03-06T19:49:18.624Z,951.00
2023-03-06T19:53:18.581Z,954.00
2023-03-06T19:57:18.573Z,945.00
2023-03-06T20:01:18.599Z,939.00
2023-03-06T20:05:18.488Z,935.00
2023-03-06T20:09:18.445Z,934.00
2023-03-06T20:13:18.417Z,926.00
2023-03-06T20:17:18.348Z,922.00
2023-03-06T20:21:18.313Z,920.00
2023-03-06T20:25:18.307Z,919.00
2023-03-06T20:29:18.380Z,917.00
2023-03-06T20:33:18.228Z,911.00
2023-03-06T20:37:18.203Z,910.00
2023-03-06T20:41:18.169Z,904.00
2023-03-06T20:45:18.120Z,894.00
2023-03-06T20:49:18.108Z,894.00
2023-03-06T20:53:18.027Z,889.00
2023-03-06T20:57:18.005Z,884.00
2023-03-06T21:01:18.020Z,875.00
2023-03-06T21:05:17.993Z,873.00
2023-03-06T21:09:17.985Z,876.00
2023-03-06T21:13:18.048Z,881.00
2023-03-06T21:17:18.088Z,873.00
2023-03-06T21:21:18.138Z,872.00
2023-03-06T21:25:18.197Z,871.00
2023-03-06T21:29:18.355Z,866.00
2023-03-06T21:33:18.244Z,861.00
2023-03-06T21:37:18.274Z,851.00
2023-03-06T21:41:18.303Z,851.00
2023-03-06T21:45:18.273Z,837.00
2023-03-06T21:49:18.272Z,845.00
2023-03-06T21:53:18.228Z,838.00
2023-03-06T21:57:18.223Z,832.00
2023-03-06T22:01:18.275Z,831.00
2023-03-06T22:05:18.194Z,829.00
2023-03-06T22:09:18.179Z,830.00
2023-03-06T22:13:18.185Z,830.00
2023-03-06T22:17:18.149Z,819.00
2023-03-06T22:21:18.177Z,820.00
2023-03-06T22:25:18.114Z,820.00
2023-03-06T22:29:18.128Z,816.00
2023-03-06T22:33:18.113Z,812.00
2023-03-06T22:37:18.106Z,806.00
2023-03-06T22:41:18.094Z,805.00
2023-03-06T22:45:18.084Z,804.00
2023-03-06T22:49:18.045Z,803.00
2023-03-06T22:53:18.034Z,795.00
2023-03-06T22:57:18.038Z,790.00
2023-03-06T23:01:17.992Z,790.00
2023-03-06T23:05:17.966Z,784.00
2023-03-06T23:09:18.005Z,776.00
2023-03-06T23:13:17.967Z,780.00
2023-03-06T23:17:17.967Z,785.00
2023-03-06T23:21:17.988Z,780.00
2023-03-06T23:25:17.934Z,776.00
2023-03-06T23:29:17.939Z,776.00
2023-03-06T23:33:17.902Z,771.00
2023-03-06T23:37:17.884Z,768.00
2023-03-06T23:41:17.885Z,768.00
2023-03-06T23:45:17.887Z,763.00
2023-03-06T23:49:17.869Z,762.00
2023-03-06T23:53:17.877Z,759.00
2023-03-06T23:57:17.855Z,760.00
